sensor_id;sensor_type;location;lat;lon;timestamp;P1;durP1;ratioP1;P2;durP2;ratioP2
49784;SDS011;35679;38.732;-121.358;2022-09-03T00:00:55;1.90;;;1.80;;
49784;SDS011;35679;38.732;-121.358;2022-09-03T00:03:51;2.33;;;1.83;;
49784;SDS011;35679;38.732;-121.358;2022-09-03T00:06:47;2.58;;;1.80;;
49784;SDS011;35679;38.732;-121.358;2022-09-03T00:09:45;2.25;;;2.00;;
49784;SDS011;35679;38.732;-121.358;2022-09-03T00:12:39;2.65;;;1.70;;
49784;SDS011;35679;38.732;-121.358;2022-09-03T00:15:32;2.03;;;1.92;;
49784;SDS011;35679;38.732;-121.358;2022-09-03T00:18:24;3.55;;;1.92;;
49784;SDS011;35679;38.732;-121.358;2022-09-03T00:21:23;1.90;;;1.80;;
49784;SDS011;35679;38.732;-121.358;2022-09-03T00:24:17;1.90;;;1.80;;
49784;SDS011;35679;38.732;-121.358;2022-09-03T00:27:14;1.83;;;1.73;;
49784;SDS011;35679;38.732;-121.358;2022-09-03T00:30:09;1.88;;;1.77;;
49784;SDS011;35679;38.732;-121.358;2022-09-03T00:33:07;1.75;;;1.65;;
49784;SDS011;35679;38.732;-121.358;2022-09-03T00:38:52;1.80;;;1.70;;
49784;SDS011;35679;38.732;-121.358;2022-09-03T00:45:09;1.60;;;1.50;;
49784;SDS011;35679;38.732;-121.358;2022-09-03T00:51:26;1.80;;;1.70;;
49784;SDS011;35679;38.732;-121.358;2022-09-03T00:54:27;1.80;;;1.70;;
49784;SDS011;35679;38.732;-121.358;2022-09-03T01:00:35;2.03;;;1.90;;
49784;SDS011;35679;38.732;-121.358;2022-09-03T01:13:23;1.63;;;1.50;;
49784;SDS011;35679;38.732;-121.358;2022-09-03T01:22:48;1.63;;;1.52;;
49784;SDS011;35679;38.732;-121.358;2022-09-03T01:29:04;1.75;;;1.65;;
49784;SDS011;35679;38.732;-121.358;2022-09-03T01:51:13;1.80;;;1.70;;
49784;SDS011;35679;38.732;-121.358;2022-09-03T01:54:25;1.80;;;1.70;;
49784;SDS011;35679;38.732;-121.358;2022-09-03T01:57:37;1.75;;;1.65;;
49784;SDS011;35679;38.732;-121.358;2022-09-03T02:00:37;1.80;;;1.70;;
49784;SDS011;35679;38.732;-121.358;2022-09-03T02:03:35;2.03;;;1.83;;
49784;SDS011;35679;38.732;-121.358;2022-09-03T02:06:28;1.88;;;1.73;;
49784;SDS011;35679;38.732;-121.358;2022-09-03T02:09:22;1.73;;;1.63;;
49784;SDS011;35679;38.732;-121.358;2022-09-03T02:12:19;1.90;;;1.80;;
49784;SDS011;35679;38.732;-121.358;2022-09-03T02:15:13;2.00;;;1.90;;
49784;SDS011;35679;38.732;-121.358;2022-09-03T02:18:06;1.80;;;1.70;;
49784;SDS011;35679;38.732;-121.358;2022-09-03T02:21:01;1.80;;;1.70;;
49784;SDS011;35679;38.732;-121.358;2022-09-03T02:23:52;3.20;;;2.00;;
49784;SDS011;35679;38.732;-121.358;2022-09-03T02:26:41;2.00;;;1.90;;
49784;SDS011;35679;38.732;-121.358;2022-09-03T02:29:31;1.95;;;1.85;;
49784;SDS011;35679;38.732;-121.358;2022-09-03T02:32:21;1.88;;;1.77;;
49784;SDS011;35679;38.732;-121.358;2022-09-03T02:35:12;2.13;;;1.92;;
49784;SDS011;35679;38.732;-121.358;2022-09-03T02:38:09;1.85;;;1.75;;
49784;SDS011;35679;38.732;-121.358;2022-09-03T02:41:02;2.08;;;1.48;;
49784;SDS011;35679;38.732;-121.358;2022-09-03T02:47:14;2.47;;;1.90;;
49784;SDS011;35679;38.732;-121.358;2022-09-03T02:50:03;1.90;;;1.73;;
49784;SDS011;35679;38.732;-121.358;2022-09-03T02:52:53;1.85;;;1.75;;
49784;SDS011;35679;38.732;-121.358;2022-09-03T02:55:43;2.13;;;1.63;;
49784;SDS011;35679;38.732;-121.358;2022-09-03T02:58:32;1.98;;;1.80;;
49784;SDS011;35679;38.732;-121.358;2022-09-03T03:01:23;2.40;;;1.88;;
49784;SDS011;35679;38.732;-121.358;2022-09-03T03:04:12;2.10;;;1.90;;
49784;SDS011;35679;38.732;-121.358;2022-09-03T03:07:02;2.28;;;2.00;;
49784;SDS011;35679;38.732;-121.358;2022-09-03T03:09:53;3.58;;;2.15;;
49784;SDS011;35679;38.732;-121.358;2022-09-03T03:12:43;2.10;;;1.90;;
49784;SDS011;35679;38.732;-121.358;2022-09-03T03:15:33;1.83;;;1.73;;
49784;SDS011;35679;38.732;-121.358;2022-09-03T03:18:23;2.30;;;2.10;;
49784;SDS011;35679;38.732;-121.358;2022-09-03T03:21:14;3.22;;;1.98;;
49784;SDS011;35679;38.732;-121.358;2022-09-03T03:24:05;1.85;;;1.75;;
49784;SDS011;35679;38.732;-121.358;2022-09-03T03:26:56;1.80;;;1.70;;
49784;SDS011;35679;38.732;-121.358;2022-09-03T03:29:46;2.67;;;2.10;;
49784;SDS011;35679;38.732;-121.358;2022-09-03T03:32:36;2.10;;;1.90;;
49784;SDS011;35679;38.732;-121.358;2022-09-03T03:35:25;2.17;;;1.98;;
49784;SDS011;35679;38.732;-121.358;2022-09-03T03:38:15;2.33;;;1.98;;
49784;SDS011;35679;38.732;-121.358;2022-09-03T03:41:11;2.78;;;2.20;;
49784;SDS011;35679;38.732;-121.358;2022-09-03T03:44:12;2.65;;;2.22;;
49784;SDS011;35679;38.732;-121.358;2022-09-03T03:47:02;2.72;;;2.25;;
49784;SDS011;35679;38.732;-121.358;2022-09-03T03:49:53;3.00;;;2.20;;
49784;SDS011;35679;38.732;-121.358;2022-09-03T03:52:42;3.97;;;2.33;;
49784;SDS011;35679;38.732;-121.358;2022-09-03T03:55:32;5.65;;;2.47;;
49784;SDS011;35679;38.732;-121.358;2022-09-03T03:58:21;5.13;;;2.88;;
49784;SDS011;35679;38.732;-121.358;2022-09-03T04:01:14;4.75;;;3.10;;
49784;SDS011;35679;38.732;-121.358;2022-09-03T04:04:07;5.65;;;2.88;;
49784;SDS011;35679;38.732;-121.358;2022-09-03T04:07:00;3.65;;;2.85;;
49784;SDS011;35679;38.732;-121.358;2022-09-03T04:09:49;5.75;;;3.33;;
49784;SDS011;35679;38.732;-121.358;2022-09-03T04:12:39;5.05;;;3.20;;
49784;SDS011;35679;38.732;-121.358;2022-09-03T04:15:28;4.68;;;3.10;;
49784;SDS011;35679;38.732;-121.358;2022-09-03T04:18:17;4.95;;;3.63;;
49784;SDS011;35679;38.732;-121.358;2022-09-03T04:21:12;4.45;;;3.10;;
49784;SDS011;35679;38.732;-121.358;2022-09-03T04:24:05;5.53;;;3.15;;
49784;SDS011;35679;38.732;-121.358;2022-09-03T04:26:55;4.20;;;3.20;;
49784;SDS011;35679;38.732;-121.358;2022-09-03T04:29:46;5.95;;;3.90;;
49784;SDS011;35679;38.732;-121.358;2022-09-03T04:32:37;7.63;;;4.93;;
49784;SDS011;35679;38.732;-121.358;2022-09-03T04:35:42;8.55;;;4.85;;
49784;SDS011;35679;38.732;-121.358;2022-09-03T04:38:34;9.15;;;5.10;;
49784;SDS011;35679;38.732;-121.358;2022-09-03T04:41:26;7.13;;;4.85;;
49784;SDS011;35679;38.732;-121.358;2022-09-03T04:44:17;10.05;;;5.82;;
49784;SDS011;35679;38.732;-121.358;2022-09-03T04:47:08;9.20;;;5.68;;
49784;SDS011;35679;38.732;-121.358;2022-09-03T04:49:58;9.18;;;5.75;;
49784;SDS011;35679;38.732;-121.358;2022-09-03T04:52:49;10.93;;;6.47;;
49784;SDS011;35679;38.732;-121.358;2022-09-03T04:55:39;8.65;;;5.82;;
49784;SDS011;35679;38.732;-121.358;2022-09-03T04:58:29;9.48;;;5.75;;
49784;SDS011;35679;38.732;-121.358;2022-09-03T05:01:20;9.65;;;5.78;;
49784;SDS011;35679;38.732;-121.358;2022-09-03T05:04:11;10.30;;;6.32;;
49784;SDS011;35679;38.732;-121.358;2022-09-03T05:07:02;10.15;;;5.90;;
49784;SDS011;35679;38.732;-121.358;2022-09-03T05:09:52;9.20;;;5.60;;
49784;SDS011;35679;38.732;-121.358;2022-09-03T05:12:42;11.00;;;5.85;;
49784;SDS011;35679;38.732;-121.358;2022-09-03T05:15:33;10.90;;;6.70;;
49784;SDS011;35679;38.732;-121.358;2022-09-03T05:18:23;13.48;;;8.02;;
49784;SDS011;35679;38.732;-121.358;2022-09-03T05:21:14;10.88;;;6.75;;
49784;SDS011;35679;38.732;-121.358;2022-09-03T05:24:06;14.25;;;7.38;;
49784;SDS011;35679;38.732;-121.358;2022-09-03T05:26:56;10.20;;;6.88;;
49784;SDS011;35679;38.732;-121.358;2022-09-03T05:29:47;13.43;;;7.90;;
49784;SDS011;35679;38.732;-121.358;2022-09-03T05:32:38;12.48;;;7.43;;
49784;SDS011;35679;38.732;-121.358;2022-09-03T05:35:29;11.32;;;6.45;;
49784;SDS011;35679;38.732;-121.358;2022-09-03T05:38:24;13.45;;;8.07;;
49784;SDS011;35679;38.732;-121.358;2022-09-03T05:41:16;12.35;;;8.20;;
49784;SDS011;35679;38.732;-121.358;2022-09-03T05:46:57;14.77;;;8.20;;
49784;SDS011;35679;38.732;-121.358;2022-09-03T05:49:48;14.77;;;9.13;;
49784;SDS011;35679;38.732;-121.358;2022-09-03T05:52:39;13.75;;;8.13;;
49784;SDS011;35679;38.732;-121.358;2022-09-03T05:55:30;17.40;;;9.00;;
49784;SDS011;35679;38.732;-121.358;2022-09-03T05:58:21;15.85;;;9.48;;
49784;SDS011;35679;38.732;-121.358;2022-09-03T06:04:13;12.98;;;8.02;;
49784;SDS011;35679;38.732;-121.358;2022-09-03T06:07:06;16.10;;;8.70;;
49784;SDS011;35679;38.732;-121.358;2022-09-03T06:09:57;14.93;;;9.57;;
49784;SDS011;35679;38.732;-121.358;2022-09-03T06:12:50;17.45;;;9.82;;
49784;SDS011;35679;38.732;-121.358;2022-09-03T06:15:40;15.80;;;9.80;;
49784;SDS011;35679;38.732;-121.358;2022-09-03T06:18:30;15.23;;;9.32;;
49784;SDS011;35679;38.732;-121.358;2022-09-03T06:21:23;14.55;;;9.40;;
49784;SDS011;35679;38.732;-121.358;2022-09-03T06:24:17;17.25;;;10.80;;
49784;SDS011;35679;38.732;-121.358;2022-09-03T06:27:14;16.65;;;10.00;;
49784;SDS011;35679;38.732;-121.358;2022-09-03T06:30:06;17.75;;;9.45;;
49784;SDS011;35679;38.732;-121.358;2022-09-03T06:32:57;16.38;;;10.75;;
49784;SDS011;35679;38.732;-121.358;2022-09-03T06:35:51;16.05;;;10.38;;
49784;SDS011;35679;38.732;-121.358;2022-09-03T06:38:45;17.23;;;10.55;;
49784;SDS011;35679;38.732;-121.358;2022-09-03T06:41:36;15.63;;;10.30;;
49784;SDS011;35679;38.732;-121.358;2022-09-03T06:44:29;18.80;;;10.45;;
49784;SDS011;35679;38.732;-121.358;2022-09-03T06:47:19;18.58;;;11.45;;
49784;SDS011;35679;38.732;-121.358;2022-09-03T06:50:09;19.20;;;11.95;;
49784;SDS011;35679;38.732;-121.358;2022-09-03T06:53:00;18.73;;;10.65;;
49784;SDS011;35679;38.732;-121.358;2022-09-03T06:55:57;17.63;;;11.38;;
49784;SDS011;35679;38.732;-121.358;2022-09-03T06:58:49;19.15;;;11.88;;
49784;SDS011;35679;38.732;-121.358;2022-09-03T07:01:42;17.10;;;11.07;;
49784;SDS011;35679;38.732;-121.358;2022-09-03T07:04:33;17.23;;;11.10;;
49784;SDS011;35679;38.732;-121.358;2022-09-03T07:07:23;16.75;;;11.23;;
49784;SDS011;35679;38.732;-121.358;2022-09-03T07:10:14;20.63;;;12.18;;
49784;SDS011;35679;38.732;-121.358;2022-09-03T07:13:09;18.75;;;11.65;;
49784;SDS011;35679;38.732;-121.358;2022-09-03T07:16:09;20.85;;;12.27;;
49784;SDS011;35679;38.732;-121.358;2022-09-03T07:21:52;18.67;;;12.00;;
49784;SDS011;35679;38.732;-121.358;2022-09-03T07:24:42;18.08;;;12.43;;
49784;SDS011;35679;38.732;-121.358;2022-09-03T07:27:35;19.77;;;12.10;;
49784;SDS011;35679;38.732;-121.358;2022-09-03T07:30:26;19.02;;;12.18;;
49784;SDS011;35679;38.732;-121.358;2022-09-03T07:33:19;17.58;;;11.90;;
49784;SDS011;35679;38.732;-121.358;2022-09-03T07:36:11;18.63;;;11.65;;
49784;SDS011;35679;38.732;-121.358;2022-09-03T07:39:04;19.20;;;11.73;;
49784;SDS011;35679;38.732;-121.358;2022-09-03T07:41:55;17.63;;;11.80;;
49784;SDS011;35679;38.732;-121.358;2022-09-03T07:44:46;18.63;;;12.02;;
49784;SDS011;35679;38.732;-121.358;2022-09-03T07:47:45;19.92;;;12.38;;
49784;SDS011;35679;38.732;-121.358;2022-09-03T07:50:39;19.50;;;11.80;;
49784;SDS011;35679;38.732;-121.358;2022-09-03T07:53:29;19.95;;;11.88;;
49784;SDS011;35679;38.732;-121.358;2022-09-03T07:56:22;18.50;;;12.45;;
49784;SDS011;35679;38.732;-121.358;2022-09-03T07:59:12;18.83;;;11.55;;
49784;SDS011;35679;38.732;-121.358;2022-09-03T08:02:03;20.65;;;12.93;;
49784;SDS011;35679;38.732;-121.358;2022-09-03T08:04:54;19.63;;;12.80;;
49784;SDS011;35679;38.732;-121.358;2022-09-03T08:07:44;20.33;;;12.85;;
49784;SDS011;35679;38.732;-121.358;2022-09-03T08:10:36;19.25;;;12.40;;
49784;SDS011;35679;38.732;-121.358;2022-09-03T08:13:38;18.70;;;12.48;;
49784;SDS011;35679;38.732;-121.358;2022-09-03T08:16:31;18.58;;;12.10;;
49784;SDS011;35679;38.732;-121.358;2022-09-03T08:19:23;18.92;;;12.75;;
49784;SDS011;35679;38.732;-121.358;2022-09-03T08:22:14;20.55;;;12.95;;
49784;SDS011;35679;38.732;-121.358;2022-09-03T08:25:04;18.25;;;12.20;;
49784;SDS011;35679;38.732;-121.358;2022-09-03T08:28:00;21.10;;;11.82;;
49784;SDS011;35679;38.732;-121.358;2022-09-03T08:30:52;18.50;;;12.43;;
49784;SDS011;35679;38.732;-121.358;2022-09-03T08:33:44;19.27;;;11.95;;
49784;SDS011;35679;38.732;-121.358;2022-09-03T08:36:39;20.30;;;12.88;;
49784;SDS011;35679;38.732;-121.358;2022-09-03T08:39:30;18.50;;;12.60;;
49784;SDS011;35679;38.732;-121.358;2022-09-03T08:42:27;19.90;;;12.48;;
49784;SDS011;35679;38.732;-121.358;2022-09-03T08:45:42;19.08;;;12.15;;
49784;SDS011;35679;38.732;-121.358;2022-09-03T08:48:33;20.95;;;12.85;;
49784;SDS011;35679;38.732;-121.358;2022-09-03T08:51:24;18.23;;;12.25;;
49784;SDS011;35679;38.732;-121.358;2022-09-03T08:54:18;17.98;;;11.48;;
49784;SDS011;35679;38.732;-121.358;2022-09-03T08:57:12;17.30;;;12.35;;
49784;SDS011;35679;38.732;-121.358;2022-09-03T09:18:08;18.77;;;11.63;;
49784;SDS011;35679;38.732;-121.358;2022-09-03T09:21:15;21.50;;;12.95;;
49784;SDS011;35679;38.732;-121.358;2022-09-03T09:24:34;20.13;;;12.48;;
49784;SDS011;35679;38.732;-121.358;2022-09-03T09:27:31;21.20;;;12.25;;
49784;SDS011;35679;38.732;-121.358;2022-09-03T09:30:21;16.35;;;11.05;;
49784;SDS011;35679;38.732;-121.358;2022-09-03T09:33:13;16.42;;;11.60;;
49784;SDS011;35679;38.732;-121.358;2022-09-03T09:36:05;18.98;;;12.00;;
49784;SDS011;35679;38.732;-121.358;2022-09-03T09:39:09;19.05;;;11.95;;
49784;SDS011;35679;38.732;-121.358;2022-09-03T09:42:07;16.55;;;10.73;;
49784;SDS011;35679;38.732;-121.358;2022-09-03T09:45:07;19.00;;;11.40;;
49784;SDS011;35679;38.732;-121.358;2022-09-03T09:48:00;17.25;;;11.32;;
49784;SDS011;35679;38.732;-121.358;2022-09-03T09:51:06;18.40;;;11.27;;
49784;SDS011;35679;38.732;-121.358;2022-09-03T09:54:15;15.88;;;11.05;;
49784;SDS011;35679;38.732;-121.358;2022-09-03T09:57:20;16.45;;;11.25;;
49784;SDS011;35679;38.732;-121.358;2022-09-03T10:00:14;18.15;;;11.88;;
49784;SDS011;35679;38.732;-121.358;2022-09-03T10:03:08;17.15;;;11.52;;
49784;SDS011;35679;38.732;-121.358;2022-09-03T10:06:07;15.38;;;10.63;;
49784;SDS011;35679;38.732;-121.358;2022-09-03T10:15:41;16.70;;;11.13;;
49784;SDS011;35679;38.732;-121.358;2022-09-03T10:24:52;15.02;;;11.48;;
49784;SDS011;35679;38.732;-121.358;2022-09-03T10:27:53;17.10;;;11.02;;
49784;SDS011;35679;38.732;-121.358;2022-09-03T10:46:46;18.33;;;11.00;;
49784;SDS011;35679;38.732;-121.358;2022-09-03T10:53:05;14.10;;;10.15;;
49784;SDS011;35679;38.732;-121.358;2022-09-03T10:56:28;16.63;;;10.95;;
49784;SDS011;35679;38.732;-121.358;2022-09-03T11:08:53;15.20;;;9.90;;
49784;SDS011;35679;38.732;-121.358;2022-09-03T11:11:57;14.90;;;10.77;;
49784;SDS011;35679;38.732;-121.358;2022-09-03T11:15:02;15.00;;;10.60;;
49784;SDS011;35679;38.732;-121.358;2022-09-03T11:18:17;13.77;;;9.77;;
49784;SDS011;35679;38.732;-121.358;2022-09-03T11:21:11;14.13;;;9.90;;
49784;SDS011;35679;38.732;-121.358;2022-09-03T11:27:30;14.07;;;8.77;;
49784;SDS011;35679;38.732;-121.358;2022-09-03T11:30:22;15.02;;;9.13;;
49784;SDS011;35679;38.732;-121.358;2022-09-03T11:33:18;12.77;;;8.75;;
49784;SDS011;35679;38.732;-121.358;2022-09-03T11:36:12;13.90;;;8.85;;
49784;SDS011;35679;38.732;-121.358;2022-09-03T11:39:12;15.40;;;9.32;;
49784;SDS011;35679;38.732;-121.358;2022-09-03T11:42:11;15.35;;;8.85;;
49784;SDS011;35679;38.732;-121.358;2022-09-03T11:57:12;14.23;;;8.77;;
49784;SDS011;35679;38.732;-121.358;2022-09-03T12:00:12;17.88;;;9.73;;
49784;SDS011;35679;38.732;-121.358;2022-09-03T12:03:11;16.40;;;9.60;;
49784;SDS011;35679;38.732;-121.358;2022-09-03T12:06:53;16.17;;;9.00;;
49784;SDS011;35679;38.732;-121.358;2022-09-03T12:09:55;17.48;;;9.52;;
49784;SDS011;35679;38.732;-121.358;2022-09-03T12:13:19;17.30;;;10.52;;
49784;SDS011;35679;38.732;-121.358;2022-09-03T12:16:28;15.98;;;9.52;;
49784;SDS011;35679;38.732;-121.358;2022-09-03T12:19:48;16.10;;;9.57;;
49784;SDS011;35679;38.732;-121.358;2022-09-03T12:22:47;15.48;;;9.55;;
49784;SDS011;35679;38.732;-121.358;2022-09-03T12:25:42;17.88;;;10.98;;
49784;SDS011;35679;38.732;-121.358;2022-09-03T12:28:37;14.57;;;9.68;;
49784;SDS011;35679;38.732;-121.358;2022-09-03T12:31:31;18.60;;;10.40;;
49784;SDS011;35679;38.732;-121.358;2022-09-03T12:34:34;16.27;;;9.55;;
49784;SDS011;35679;38.732;-121.358;2022-09-03T12:37:25;17.92;;;9.55;;
49784;SDS011;35679;38.732;-121.358;2022-09-03T12:40:44;20.13;;;10.60;;
49784;SDS011;35679;38.732;-121.358;2022-09-03T12:43:56;19.80;;;9.90;;
49784;SDS011;35679;38.732;-121.358;2022-09-03T12:46:47;17.85;;;10.57;;
49784;SDS011;35679;38.732;-121.358;2022-09-03T12:50:03;17.17;;;10.93;;
49784;SDS011;35679;38.732;-121.358;2022-09-03T12:53:01;18.17;;;10.65;;
49784;SDS011;35679;38.732;-121.358;2022-09-03T12:55:56;18.40;;;9.77;;
49784;SDS011;35679;38.732;-121.358;2022-09-03T12:58:51;17.63;;;10.38;;
49784;SDS011;35679;38.732;-121.358;2022-09-03T13:01:52;19.33;;;11.38;;
49784;SDS011;35679;38.732;-121.358;2022-09-03T13:04:47;19.35;;;11.30;;
49784;SDS011;35679;38.732;-121.358;2022-09-03T13:07:42;19.70;;;10.55;;
49784;SDS011;35679;38.732;-121.358;2022-09-03T13:10:40;20.33;;;11.30;;
49784;SDS011;35679;38.732;-121.358;2022-09-03T13:13:35;17.90;;;10.55;;
49784;SDS011;35679;38.732;-121.358;2022-09-03T13:26:11;20.33;;;11.32;;
49784;SDS011;35679;38.732;-121.358;2022-09-03T13:29:38;17.75;;;10.63;;
49784;SDS011;35679;38.732;-121.358;2022-09-03T13:39:31;20.05;;;10.80;;
49784;SDS011;35679;38.732;-121.358;2022-09-03T13:45:22;20.20;;;11.30;;
49784;SDS011;35679;38.732;-121.358;2022-09-03T13:48:29;17.80;;;10.73;;
49784;SDS011;35679;38.732;-121.358;2022-09-03T13:51:49;21.25;;;11.27;;
49784;SDS011;35679;38.732;-121.358;2022-09-03T13:54:45;17.38;;;11.45;;
49784;SDS011;35679;38.732;-121.358;2022-09-03T13:57:49;16.70;;;10.07;;
49784;SDS011;35679;38.732;-121.358;2022-09-03T14:01:09;18.55;;;10.65;;
49784;SDS011;35679;38.732;-121.358;2022-09-03T14:04:21;20.35;;;10.20;;
49784;SDS011;35679;38.732;-121.358;2022-09-03T14:07:57;17.02;;;10.80;;
49784;SDS011;35679;38.732;-121.358;2022-09-03T14:21:16;19.38;;;11.15;;
49784;SDS011;35679;38.732;-121.358;2022-09-03T14:27:25;20.73;;;11.33;;
49784;SDS011;35679;38.732;-121.358;2022-09-03T15:05:31;18.48;;;10.07;;
49784;SDS011;35679;38.732;-121.358;2022-09-03T15:11:48;16.83;;;10.73;;
49784;SDS011;35679;38.732;-121.358;2022-09-03T15:14:55;13.57;;;9.52;;
49784;SDS011;35679;38.732;-121.358;2022-09-03T15:17:53;17.38;;;9.48;;
49784;SDS011;35679;38.732;-121.358;2022-09-03T15:27:17;16.50;;;10.02;;
49784;SDS011;35679;38.732;-121.358;2022-09-03T15:30:32;20.17;;;9.93;;
49784;SDS011;35679;38.732;-121.358;2022-09-03T15:33:32;15.77;;;10.02;;
49784;SDS011;35679;38.732;-121.358;2022-09-03T15:36:39;23.48;;;10.10;;
49784;SDS011;35679;38.732;-121.358;2022-09-03T15:39:35;18.67;;;10.52;;
49784;SDS011;35679;38.732;-121.358;2022-09-03T15:42:32;15.15;;;9.80;;
49784;SDS011;35679;38.732;-121.358;2022-09-03T15:48:36;15.95;;;9.85;;
49784;SDS011;35679;38.732;-121.358;2022-09-03T15:52:00;15.88;;;10.15;;
49784;SDS011;35679;38.732;-121.358;2022-09-03T15:55:11;15.93;;;9.52;;
49784;SDS011;35679;38.732;-121.358;2022-09-03T15:58:25;17.85;;;9.80;;
49784;SDS011;35679;38.732;-121.358;2022-09-03T16:07:57;15.38;;;9.82;;
49784;SDS011;35679;38.732;-121.358;2022-09-03T16:23:48;16.73;;;9.60;;
49784;SDS011;35679;38.732;-121.358;2022-09-03T16:26:48;14.27;;;9.13;;
49784;SDS011;35679;38.732;-121.358;2022-09-03T16:30:00;17.80;;;9.82;;
49784;SDS011;35679;38.732;-121.358;2022-09-03T16:33:05;15.00;;;9.05;;
49784;SDS011;35679;38.732;-121.358;2022-09-03T16:39:35;15.32;;;9.02;;
49784;SDS011;35679;38.732;-121.358;2022-09-03T16:42:30;16.45;;;9.35;;
49784;SDS011;35679;38.732;-121.358;2022-09-03T16:45:38;15.60;;;9.20;;
49784;SDS011;35679;38.732;-121.358;2022-09-03T16:52:17;15.55;;;9.15;;
49784;SDS011;35679;38.732;-121.358;2022-09-03T16:55:43;14.43;;;9.05;;
49784;SDS011;35679;38.732;-121.358;2022-09-03T17:05:37;13.98;;;9.20;;
49784;SDS011;35679;38.732;-121.358;2022-09-03T17:30:34;15.40;;;8.77;;
49784;SDS011;35679;38.732;-121.358;2022-09-03T17:34:04;20.77;;;9.57;;
49784;SDS011;35679;38.732;-121.358;2022-09-03T17:46:48;13.65;;;8.45;;
49784;SDS011;35679;38.732;-121.358;2022-09-03T17:50:10;14.85;;;8.95;;
49784;SDS011;35679;38.732;-121.358;2022-09-03T17:53:11;16.30;;;9.13;;
49784;SDS011;35679;38.732;-121.358;2022-09-03T18:09:34;13.93;;;8.80;;
49784;SDS011;35679;38.732;-121.358;2022-09-03T18:12:45;17.23;;;8.82;;
49784;SDS011;35679;38.732;-121.358;2022-09-03T18:15:54;17.35;;;8.82;;
49784;SDS011;35679;38.732;-121.358;2022-09-03T18:22:21;14.25;;;8.40;;
49784;SDS011;35679;38.732;-121.358;2022-09-03T18:25:37;14.38;;;8.38;;
49784;SDS011;35679;38.732;-121.358;2022-09-03T18:28:58;14.35;;;8.63;;
49784;SDS011;35679;38.732;-121.358;2022-09-03T18:32:10;14.80;;;8.52;;
49784;SDS011;35679;38.732;-121.358;2022-09-03T18:35:19;14.25;;;8.68;;
49784;SDS011;35679;38.732;-121.358;2022-09-03T18:38:33;13.15;;;8.90;;
49784;SDS011;35679;38.732;-121.358;2022-09-03T18:49:45;14.77;;;11.07;;
49784;SDS011;35679;38.732;-121.358;2022-09-03T18:53:13;16.33;;;11.75;;
49784;SDS011;35679;38.732;-121.358;2022-09-03T18:56:46;14.70;;;12.07;;
49784;SDS011;35679;38.732;-121.358;2022-09-03T19:00:11;14.32;;;12.10;;
49784;SDS011;35679;38.732;-121.358;2022-09-03T19:03:28;17.92;;;11.70;;
49784;SDS011;35679;38.732;-121.358;2022-09-03T19:10:27;18.52;;;11.70;;
49784;SDS011;35679;38.732;-121.358;2022-09-03T19:14:02;17.00;;;12.13;;
49784;SDS011;35679;38.732;-121.358;2022-09-03T19:24:13;18.30;;;11.40;;
49784;SDS011;35679;38.732;-121.358;2022-09-03T19:41:33;25.85;;;14.55;;
49784;SDS011;35679;38.732;-121.358;2022-09-03T19:48:26;23.30;;;11.82;;
49784;SDS011;35679;38.732;-121.358;2022-09-03T19:54:53;21.88;;;12.13;;
49784;SDS011;35679;38.732;-121.358;2022-09-03T19:58:03;15.40;;;11.75;;
49784;SDS011;35679;38.732;-121.358;2022-09-03T20:01:36;13.68;;;10.55;;
49784;SDS011;35679;38.732;-121.358;2022-09-03T20:04:50;17.20;;;10.95;;
49784;SDS011;35679;38.732;-121.358;2022-09-03T20:08:06;20.23;;;11.05;;
49784;SDS011;35679;38.732;-121.358;2022-09-03T20:11:17;17.13;;;10.80;;
49784;SDS011;35679;38.732;-121.358;2022-09-03T20:14:10;18.40;;;10.93;;
49784;SDS011;35679;38.732;-121.358;2022-09-03T20:24:03;19.42;;;10.60;;
49784;SDS011;35679;38.732;-121.358;2022-09-03T20:26:39;19.20;;;10.32;;
49784;SDS011;35679;38.732;-121.358;2022-09-03T20:29:55;18.63;;;10.10;;
49784;SDS011;35679;38.732;-121.358;2022-09-03T20:39:08;19.85;;;8.25;;
49784;SDS011;35679;38.732;-121.358;2022-09-03T20:42:16;21.73;;;9.13;;
49784;SDS011;35679;38.732;-121.358;2022-09-03T20:52:11;18.23;;;8.30;;
49784;SDS011;35679;38.732;-121.358;2022-09-03T21:10:57;15.20;;;7.55;;
49784;SDS011;35679;38.732;-121.358;2022-09-03T21:17:57;15.52;;;7.55;;
49784;SDS011;35679;38.732;-121.358;2022-09-03T21:23:41;12.60;;;7.22;;
49784;SDS011;35679;38.732;-121.358;2022-09-03T21:26:35;9.85;;;7.25;;
49784;SDS011;35679;38.732;-121.358;2022-09-03T21:29:40;13.55;;;7.38;;
49784;SDS011;35679;38.732;-121.358;2022-09-03T21:32:43;12.40;;;7.38;;
49784;SDS011;35679;38.732;-121.358;2022-09-03T21:35:46;15.02;;;7.28;;
49784;SDS011;35679;38.732;-121.358;2022-09-03T21:38:43;13.93;;;7.00;;
49784;SDS011;35679;38.732;-121.358;2022-09-03T21:45:01;11.10;;;6.55;;
49784;SDS011;35679;38.732;-121.358;2022-09-03T21:48:02;11.38;;;7.00;;
49784;SDS011;35679;38.732;-121.358;2022-09-03T21:50:57;20.50;;;7.43;;
49784;SDS011;35679;38.732;-121.358;2022-09-03T21:57:12;12.27;;;7.43;;
49784;SDS011;35679;38.732;-121.358;2022-09-03T22:00:16;13.50;;;6.82;;
49784;SDS011;35679;38.732;-121.358;2022-09-03T22:03:09;11.30;;;6.20;;
49784;SDS011;35679;38.732;-121.358;2022-09-03T22:09:01;10.77;;;6.38;;
49784;SDS011;35679;38.732;-121.358;2022-09-03T22:15:19;10.15;;;6.13;;
49784;SDS011;35679;38.732;-121.358;2022-09-03T22:18:23;11.30;;;6.20;;
49784;SDS011;35679;38.732;-121.358;2022-09-03T22:21:18;10.93;;;6.38;;
49784;SDS011;35679;38.732;-121.358;2022-09-03T22:37:18;10.73;;;6.13;;
49784;SDS011;35679;38.732;-121.358;2022-09-03T22:40:40;10.85;;;5.82;;
49784;SDS011;35679;38.732;-121.358;2022-09-03T22:43:47;13.07;;;6.28;;
49784;SDS011;35679;38.732;-121.358;2022-09-03T22:47:04;13.30;;;6.60;;
49784;SDS011;35679;38.732;-121.358;2022-09-03T22:50:18;8.73;;;5.72;;
49784;SDS011;35679;38.732;-121.358;2022-09-03T22:56:15;10.02;;;5.60;;
49784;SDS011;35679;38.732;-121.358;2022-09-03T22:59:16;11.05;;;5.63;;
49784;SDS011;35679;38.732;-121.358;2022-09-03T23:02:14;9.80;;;4.95;;
49784;SDS011;35679;38.732;-121.358;2022-09-03T23:08:40;13.95;;;5.93;;
49784;SDS011;35679;38.732;-121.358;2022-09-03T23:11:37;10.15;;;5.60;;
49784;SDS011;35679;38.732;-121.358;2022-09-03T23:14:34;7.93;;;5.07;;
49784;SDS011;35679;38.732;-121.358;2022-09-03T23:17:41;10.32;;;5.43;;
49784;SDS011;35679;38.732;-121.358;2022-09-03T23:20:37;10.10;;;5.10;;
49784;SDS011;35679;38.732;-121.358;2022-09-03T23:23:36;7.93;;;5.10;;
49784;SDS011;35679;38.732;-121.358;2022-09-03T23:29:40;8.77;;;4.90;;
49784;SDS011;35679;38.732;-121.358;2022-09-03T23:32:33;8.60;;;4.97;;
49784;SDS011;35679;38.732;-121.358;2022-09-03T23:35:34;6.50;;;4.55;;
49784;SDS011;35679;38.732;-121.358;2022-09-03T23:38:52;7.35;;;4.32;;
49784;SDS011;35679;38.732;-121.358;2022-09-03T23:47:48;9.38;;;4.47;;
